Time;durP1;ratioP1;P1;durP2;ratioP2;P2;SDS_P1;SDS_P2;PMS_P1;PMS_P2;Temp;Humidity;BMP_temperature;BMP_pressure;BME280_temperature;BME280_humidity;BME280_pressure;Samples;Min_cycle;Max_cycle;Signal;HPM_P1;HPM_P2
2023/05/12 00:01:26;;;;;;;10.00;8.23;;;;;;;10.36;98.71;94839.25;5091534;28;20215;-86
2023/05/12 00:03:53;;;;;;;9.77;8.50;;;;;;;10.43;98.38;94855.56;5091027;28;20228;-85
2023/05/12 00:06:20;;;;;;;11.23;8.40;;;;;;;10.44;97.92;94852.78;5091572;28;20228;-85
2023/05/12 00:08:48;;;;;;;10.23;7.90;;;;;;;10.45;98.40;94853.53;5091597;28;20201;-85
2023/05/12 00:11:15;;;;;;;11.87;8.07;;;;;;;10.44;97.20;94855.38;5090363;28;20566;-86
2023/05/12 00:13:42;;;;;;;12.97;8.30;;;;;;;10.43;96.90;94848.56;5089965;28;20209;-85
2023/05/12 00:16:09;;;;;;;10.60;7.77;;;;;;;10.37;97.45;94851.22;5091051;28;20199;-85
2023/05/12 00:18:35;;;;;;;9.73;7.63;;;;;;;10.31;97.05;94852.06;5090708;28;20215;-85
2023/05/12 00:21:02;;;;;;;13.30;8.30;;;;;;;10.32;97.01;94854.47;5091672;28;20274;-85
2023/05/12 00:23:29;;;;;;;10.97;8.47;;;;;;;10.31;97.54;94846.84;5092248;28;20278;-85
2023/05/12 00:25:57;;;;;;;13.30;8.00;;;;;;;10.24;97.78;94855.50;5091572;28;20200;-85
2023/05/12 00:28:24;;;;;;;9.67;7.73;;;;;;;10.24;97.94;94847.69;5091079;28;20207;-84
2023/05/12 00:30:51;;;;;;;10.90;7.63;;;;;;;10.21;98.01;94853.34;5091004;28;20205;-85
2023/05/12 00:33:17;;;;;;;13.27;8.07;;;;;;;10.22;98.15;94852.31;5091597;28;20908;-84
2023/05/12 00:35:45;;;;;;;12.80;7.63;;;;;;;9.90;98.56;94857.72;5091064;28;20209;-85
2023/05/12 00:38:12;;;;;;;11.03;8.17;;;;;;;9.57;100.00;94855.25;5089848;28;20280;-78
2023/05/12 00:40:39;;;;;;;10.77;8.17;;;;;;;9.33;100.00;94846.38;5089290;28;20215;-77
2023/05/12 00:43:07;;;;;;;11.27;8.30;;;;;;;9.45;100.00;94852.50;5085900;28;20920;-77
2023/05/12 00:45:34;;;;;;;11.30;8.97;;;;;;;9.51;100.00;94858.69;5089628;28;20219;-78
2023/05/12 00:48:01;;;;;;;15.30;8.87;;;;;;;9.49;100.00;94845.94;5088940;28;20209;-78
2023/05/12 00:50:28;;;;;;;11.13;8.10;;;;;;;9.64;100.00;94858.59;5089282;28;20205;-78
2023/05/12 00:52:55;;;;;;;10.40;7.03;;;;;;;9.65;100.00;94858.41;5089247;28;20212;-78
2023/05/12 00:55:22;;;;;;;10.73;7.87;;;;;;;9.69;100.00;94861.41;5089506;28;20200;-78
2023/05/12 00:57:48;;;;;;;11.40;8.20;;;;;;;9.76;100.00;94862.16;5088889;28;20589;-77
2023/05/12 01:00:17;;;;;;;12.43;9.13;;;;;;;9.67;100.00;94863.38;5089188;28;20633;-77
2023/05/12 01:02:45;;;;;;;10.47;9.20;;;;;;;9.74;100.00;94860.75;5089447;28;20208;-77
2023/05/12 01:05:12;;;;;;;15.03;9.00;;;;;;;9.74;100.00;94861.56;5088743;28;20290;-80
2023/05/12 01:07:39;;;;;;;13.60;9.53;;;;;;;9.83;100.00;94869.91;5090589;28;20196;-81
2023/05/12 01:10:17;;;;;;;12.40;9.40;;;;;;;9.85;100.00;94871.28;5089875;28;20208;-79
2023/05/12 01:12:44;;;;;;;14.00;9.00;;;;;;;9.84;100.00;94874.09;5088157;28;20291;-80
2023/05/12 01:15:12;;;;;;;14.37;9.37;;;;;;;9.78;100.00;94872.34;5090258;28;20204;-80
2023/05/12 01:17:45;;;;;;;13.07;9.17;;;;;;;9.84;100.00;94868.91;5090166;28;20200;-80
2023/05/12 01:20:13;;;;;;;12.87;8.70;;;;;;;9.76;100.00;94872.53;5090237;28;20282;-80
2023/05/12 01:22:40;;;;;;;12.37;9.03;;;;;;;9.61;100.00;94869.41;5091040;28;20230;-81
2023/05/12 01:25:11;;;;;;;12.80;9.43;;;;;;;9.61;100.00;94872.00;5098261;28;20197;-80
2023/05/12 01:27:40;;;;;;;12.17;9.40;;;;;;;9.73;100.00;94882.53;5091103;28;20291;-80
2023/05/12 01:30:08;;;;;;;14.10;9.60;;;;;;;9.73;100.00;94877.34;5094583;28;20205;-80
2023/05/12 01:32:35;;;;;;;34.87;26.23;;;;;;;9.61;100.00;94872.00;5092243;28;20208;-80
2023/05/12 01:35:02;;;;;;;13.13;10.30;;;;;;;9.53;100.00;94862.66;5092695;28;20568;-80
2023/05/12 01:37:29;;;;;;;14.93;9.20;;;;;;;9.49;100.00;94871.06;5093813;28;20204;-81
2023/05/12 01:39:56;;;;;;;11.73;9.13;;;;;;;9.48;100.00;94878.06;5093614;28;21390;-83
2023/05/12 01:42:22;;;;;;;12.03;8.87;;;;;;;9.49;100.00;94877.06;5093927;28;20238;-83
2023/05/12 01:44:50;;;;;;;14.23;8.63;;;;;;;9.48;100.00;94870.28;5094410;28;20258;-83
2023/05/12 01:47:17;;;;;;;10.77;8.20;;;;;;;9.36;100.00;94861.53;5094293;28;20204;-83
2023/05/12 01:49:44;;;;;;;12.73;8.10;;;;;;;9.52;100.00;94870.66;5094359;28;20200;-82
2023/05/12 01:52:11;;;;;;;11.37;7.67;;;;;;;9.43;100.00;94874.47;5094362;28;20629;-81
2023/05/12 01:54:38;;;;;;;11.13;7.60;;;;;;;9.32;100.00;94877.72;5093917;28;20627;-84
2023/05/12 01:57:05;;;;;;;11.17;8.13;;;;;;;8.76;100.00;94864.47;5094623;28;20200;-83
2023/05/12 01:59:32;;;;;;;12.57;8.27;;;;;;;8.41;100.00;94866.47;5094285;28;20274;-83
2023/05/12 02:02:00;;;;;;;11.30;8.87;;;;;;;8.25;100.00;94865.06;5094116;28;20215;-83
2023/05/12 02:04:27;;;;;;;15.10;8.70;;;;;;;8.41;100.00;94871.66;5094181;28;20232;-87
2023/05/12 02:06:54;;;;;;;11.37;8.30;;;;;;;8.46;100.00;94871.84;5094012;28;20201;-88
2023/05/12 02:09:21;;;;;;;13.00;8.67;;;;;;;8.57;100.00;94870.47;5093936;28;20188;-88
2023/05/12 02:11:48;;;;;;;14.27;9.00;;;;;;;8.58;100.00;94862.47;5094030;28;20283;-88
2023/05/12 02:14:16;;;;;;;13.47;9.23;;;;;;;8.66;100.00;94858.91;5094679;28;20224;-88
2023/05/12 02:16:42;;;;;;;13.90;8.53;;;;;;;8.72;100.00;94863.25;5093397;28;20565;-81
2023/05/12 02:19:10;;;;;;;17.03;9.90;;;;;;;8.80;100.00;94861.25;5093459;28;20227;-81
2023/05/12 02:21:37;;;;;;;13.53;8.93;;;;;;;8.88;100.00;94865.44;5093270;28;20204;-82
2023/05/12 02:24:04;;;;;;;16.33;9.10;;;;;;;8.93;100.00;94874.22;5093656;28;20204;-81
2023/05/12 02:26:31;;;;;;;15.37;8.93;;;;;;;8.93;100.00;94848.28;5093138;28;20254;-81
2023/05/12 02:28:58;;;;;;;13.93;9.03;;;;;;;8.93;100.00;94860.44;5093267;28;20228;-81
2023/05/12 02:31:25;;;;;;;11.03;8.70;;;;;;;8.82;100.00;94843.72;5093099;28;20286;-81
2023/05/12 02:33:52;;;;;;;11.80;7.53;;;;;;;8.90;100.00;94858.25;5095367;28;20205;-82
2023/05/12 02:36:20;;;;;;;13.50;8.03;;;;;;;8.99;100.00;94865.63;5092421;28;20201;-81
2023/05/12 02:38:47;;;;;;;13.33;7.27;;;;;;;9.05;100.00;94866.59;5092755;28;20266;-80
2023/05/12 02:41:13;;;;;;;8.13;6.10;;;;;;;9.04;100.00;94860.63;5092602;28;20281;-80
2023/05/12 02:43:40;;;;;;;7.10;5.10;;;;;;;9.03;100.00;94855.66;5092267;28;20204;-79
2023/05/12 02:46:07;;;;;;;7.90;5.13;;;;;;;8.90;100.00;94859.06;5092313;28;20208;-83
2023/05/12 02:48:34;;;;;;;8.30;5.07;;;;;;;8.95;100.00;94864.41;5089440;28;20204;-82
2023/05/12 02:51:00;;;;;;;7.13;5.03;;;;;;;8.88;100.00;94866.25;5092728;28;20197;-81
2023/05/12 02:53:29;;;;;;;6.90;4.70;;;;;;;8.77;100.00;94859.09;5092252;28;20216;-83
2023/05/12 02:55:56;;;;;;;6.97;4.70;;;;;;;8.78;100.00;94867.63;5090961;28;20213;-84
2023/05/12 02:58:23;;;;;;;7.13;5.20;;;;;;;8.74;100.00;94869.84;5092374;28;20620;-84
2023/05/12 03:00:49;;;;;;;6.93;4.80;;;;;;;8.70;100.00;94878.22;5092482;28;20274;-83
2023/05/12 03:03:16;;;;;;;6.73;5.47;;;;;;;8.67;100.00;94874.22;5092553;28;20196;-84
2023/05/12 03:05:43;;;;;;;10.63;5.87;;;;;;;8.65;100.00;94878.81;5093753;28;20239;-84
2023/05/12 03:08:10;;;;;;;7.00;5.30;;;;;;;8.47;100.00;94869.06;5092938;28;20247;-84
2023/05/12 03:10:38;;;;;;;8.13;5.53;;;;;;;8.19;100.00;94867.63;5094046;28;20582;-80
2023/05/12 03:13:05;;;;;;;9.70;5.87;;;;;;;7.84;100.00;94872.94;5092811;28;20209;-84
2023/05/12 03:15:32;;;;;;;9.87;6.60;;;;;;;7.93;100.00;94874.34;5092681;28;20284;-83
2023/05/12 03:17:59;;;;;;;11.37;6.60;;;;;;;8.05;100.00;94871.19;5092569;28;20294;-84
2023/05/12 03:20:25;;;;;;;10.67;6.17;;;;;;;8.11;100.00;94871.19;5092515;28;20374;-85
2023/05/12 03:22:52;;;;;;;10.90;6.50;;;;;;;8.17;100.00;94872.97;5094907;28;20212;-84
2023/05/12 03:25:19;;;;;;;11.23;6.23;;;;;;;8.11;100.00;94878.94;5093634;28;20193;-83
2023/05/12 03:27:47;;;;;;;9.50;7.03;;;;;;;8.18;100.00;94881.56;5094909;28;20277;-84
2023/05/12 03:30:14;;;;;;;8.57;6.70;;;;;;;8.15;100.00;94879.34;5094700;28;20224;-84
2023/05/12 03:32:43;;;;;;;11.03;7.63;;;;;;;8.24;100.00;94881.56;5094263;28;20201;-84
2023/05/12 03:35:10;;;;;;;12.00;6.73;;;;;;;8.33;100.00;94889.97;5093589;28;20201;-85
2023/05/12 03:37:37;;;;;;;10.77;7.77;;;;;;;8.48;100.00;94895.75;5096101;28;20816;-84
2023/05/12 03:40:05;;;;;;;11.63;7.67;;;;;;;8.47;100.00;94889.78;5088662;28;20232;-86
2023/05/12 03:42:32;;;;;;;12.83;7.60;;;;;;;8.49;100.00;94900.72;5092610;28;20566;-81
2023/05/12 03:45:00;;;;;;;10.83;7.57;;;;;;;8.50;100.00;94898.94;5094617;28;20211;-82
2023/05/12 03:47:26;;;;;;;10.33;7.27;;;;;;;8.51;100.00;94903.91;5090680;28;20212;-83
2023/05/12 03:49:53;;;;;;;12.03;8.13;;;;;;;8.53;100.00;94906.31;5092117;28;20196;-81
2023/05/12 03:52:20;;;;;;;11.43;7.77;;;;;;;8.51;100.00;94897.97;5091867;28;20606;-80
2023/05/12 03:54:47;;;;;;;9.37;6.83;;;;;;;8.52;100.00;94891.75;5091249;28;20720;-81
2023/05/12 03:57:13;;;;;;;11.03;7.30;;;;;;;8.57;100.00;94892.00;5091929;28;20205;-83
2023/05/12 03:59:40;;;;;;;10.83;7.27;;;;;;;8.59;100.00;94897.75;5091822;28;20227;-83
2023/05/12 04:02:10;;;;;;;12.00;7.30;;;;;;;8.55;100.00;94904.31;5091311;28;20200;-83
2023/05/12 04:04:37;;;;;;;11.23;7.17;;;;;;;8.62;100.00;94907.72;5088349;28;20312;-83
2023/05/12 04:07:04;;;;;;;12.97;7.67;;;;;;;8.71;100.00;94905.72;5091818;28;20321;-84
2023/05/12 04:09:31;;;;;;;11.97;7.47;;;;;;;8.65;100.00;94901.34;5091248;28;20197;-80
2023/05/12 04:11:59;;;;;;;11.50;7.20;;;;;;;8.70;100.00;94915.28;5090836;28;20243;-80
2023/05/12 04:14:25;;;;;;;14.17;8.00;;;;;;;8.73;100.00;94922.66;5090368;28;20657;-81
2023/05/12 04:16:52;;;;;;;9.27;7.17;;;;;;;8.74;100.00;94913.09;5089702;28;20208;-81
2023/05/12 04:19:20;;;;;;;13.43;7.47;;;;;;;8.86;100.00;94916.69;5089855;28;20594;-81
2023/05/12 04:21:47;;;;;;;11.07;7.63;;;;;;;8.89;100.00;94916.25;5092413;28;20200;-80
2023/05/12 04:24:14;;;;;;;11.93;7.23;;;;;;;8.75;100.00;94892.16;5092363;28;20588;-82
2023/05/12 04:26:40;;;;;;;9.03;6.77;;;;;;;8.91;100.00;94911.69;5091225;28;20271;-81
2023/05/12 04:29:07;;;;;;;13.33;7.43;;;;;;;8.95;100.00;94918.84;5090991;28;20258;-82
2023/05/12 04:31:34;;;;;;;14.30;7.27;;;;;;;8.74;100.00;94919.09;5091562;28;20193;-83
2023/05/12 04:34:01;;;;;;;11.53;7.53;;;;;;;8.36;100.00;94915.47;5090732;28;20200;-82
2023/05/12 04:36:29;;;;;;;11.50;7.80;;;;;;;8.25;100.00;94916.03;5090889;28;20599;-82
2023/05/12 04:38:56;;;;;;;15.63;7.67;;;;;;;8.37;100.00;94911.88;5090926;28;20211;-82
2023/05/12 04:41:22;;;;;;;13.10;7.53;;;;;;;8.45;100.00;94922.06;5090192;28;20233;-81
2023/05/12 04:43:49;;;;;;;11.97;7.77;;;;;;;8.55;100.00;94920.66;5090297;28;20211;-80
2023/05/12 04:46:16;;;;;;;11.20;7.77;;;;;;;8.65;100.00;94912.50;5091621;28;20224;-77
2023/05/12 04:48:44;;;;;;;10.93;7.53;;;;;;;8.72;100.00;94920.25;5098712;28;20189;-84
2023/05/12 04:51:10;;;;;;;9.90;7.00;;;;;;;8.64;100.00;94897.94;5090716;28;20220;-82
2023/05/12 04:53:38;;;;;;;10.17;7.43;;;;;;;8.83;100.00;94912.69;5092052;28;20585;-84
2023/05/12 04:56:06;;;;;;;11.60;7.43;;;;;;;8.84;100.00;94919.47;5091176;28;20203;-84
2023/05/12 04:58:33;;;;;;;9.50;7.17;;;;;;;8.83;100.00;94912.69;5091290;28;20197;-86
2023/05/12 05:01:00;;;;;;;11.30;7.10;;;;;;;8.74;100.00;94893.19;5090793;28;20231;-81
2023/05/12 05:03:27;;;;;;;12.63;7.03;;;;;;;8.94;100.00;94917.28;5090573;28;20211;-81
2023/05/12 05:05:54;;;;;;;12.37;7.30;;;;;;;8.97;100.00;94922.06;5089910;28;20234;-81
2023/05/12 05:08:21;;;;;;;10.03;7.03;;;;;;;8.88;100.00;94897.34;5090531;28;20586;-83
2023/05/12 05:10:49;;;;;;;10.03;7.10;;;;;;;9.13;100.00;94920.81;5090223;28;20201;-81
2023/05/12 05:13:16;;;;;;;9.73;6.90;;;;;;;9.18;100.00;94928.03;5091122;28;20267;-81
2023/05/12 05:15:50;;;;;;;9.67;7.17;;;;;;;9.22;100.00;94926.59;5088198;28;20199;-81
2023/05/12 05:18:17;;;;;;;11.53;7.07;;;;;;;9.26;100.00;94932.97;5089436;28;20208;-80
2023/05/12 05:20:44;;;;;;;10.40;7.73;;;;;;;9.17;100.00;94918.63;5090030;28;20216;-80
2023/05/12 05:23:11;;;;;;;12.13;7.80;;;;;;;9.17;100.00;94906.47;5089997;28;20206;-81
2023/05/12 05:25:38;;;;;;;11.77;8.43;;;;;;;9.26;100.00;94912.25;5092436;28;20262;-82
2023/05/12 05:28:06;;;;;;;11.97;7.43;;;;;;;9.30;100.00;94926.38;5086746;28;20964;-80
2023/05/12 05:30:33;;;;;;;9.23;7.10;;;;;;;9.29;100.00;94928.19;5090540;28;20295;-81
2023/05/12 05:33:00;;;;;;;9.83;6.97;;;;;;;9.26;100.00;94928.59;5092905;28;20207;-80
2023/05/12 05:35:27;;;;;;;10.73;7.27;;;;;;;9.25;100.00;94929.59;5090254;28;20208;-80
2023/05/12 05:37:54;;;;;;;9.97;7.03;;;;;;;9.36;100.00;94933.34;5091861;28;20204;-81
2023/05/12 05:40:22;;;;;;;11.97;7.33;;;;;;;9.11;100.00;94905.50;5088554;28;20216;-81
2023/05/12 05:42:48;;;;;;;10.43;7.07;;;;;;;9.32;100.00;94934.78;5090296;28;20200;-80
2023/05/12 05:45:17;;;;;;;10.43;7.00;;;;;;;9.35;100.00;94937.72;5090376;28;20242;-81
2023/05/12 05:47:45;;;;;;;11.57;6.87;;;;;;;9.43;100.00;94931.53;5090071;28;20209;-80
2023/05/12 05:50:12;;;;;;;11.27;7.40;;;;;;;9.20;100.00;94928.59;5089338;28;20212;-80
2023/05/12 05:52:39;;;;;;;12.80;7.90;;;;;;;8.91;100.00;94937.59;5092749;28;20214;-79
2023/05/12 05:55:06;;;;;;;11.23;7.97;;;;;;;8.80;100.00;94939.00;5089639;28;20555;-81
2023/05/12 05:57:33;;;;;;;12.00;7.63;;;;;;;8.85;100.00;94941.00;5085951;28;20223;-79
2023/05/12 06:00:00;;;;;;;11.23;7.97;;;;;;;9.01;100.00;94943.16;5089150;28;20205;-80
2023/05/12 06:02:28;;;;;;;11.93;8.57;;;;;;;9.13;100.00;94944.97;5089711;28;20789;-80
2023/05/12 06:04:55;;;;;;;14.67;8.27;;;;;;;9.26;100.00;94946.75;5089666;28;20240;-83
2023/05/12 06:07:22;;;;;;;13.00;7.57;;;;;;;9.34;100.00;94949.13;5089711;28;20674;-83
2023/05/12 06:09:48;;;;;;;12.93;8.37;;;;;;;9.47;100.00;94936.09;5091697;28;20193;-83
2023/05/12 06:12:15;;;;;;;14.03;8.53;;;;;;;9.41;100.00;94917.97;5093998;28;20202;-83
2023/05/12 06:14:42;;;;;;;10.13;7.43;;;;;;;9.61;100.00;94952.44;5093454;28;20193;-83
2023/05/12 06:17:09;;;;;;;13.80;7.57;;;;;;;9.69;100.00;94955.63;5093459;28;20189;-82
2023/05/12 06:19:38;;;;;;;10.93;7.30;;;;;;;9.73;100.00;94958.59;5093636;28;20196;-83
2023/05/12 06:22:05;;;;;;;13.57;7.97;;;;;;;9.85;100.00;94956.16;5089637;28;20227;-83
2023/05/12 06:24:32;;;;;;;14.37;8.00;;;;;;;9.89;100.00;94946.97;5093254;28;20211;-82
2023/05/12 06:26:59;;;;;;;9.60;7.37;;;;;;;9.93;100.00;94950.72;5093130;28;20212;-83
2023/05/12 06:29:25;;;;;;;11.13;7.43;;;;;;;9.99;100.00;94955.09;5092827;28;20220;-82
2023/05/12 06:31:52;;;;;;;10.77;7.20;;;;;;;9.87;100.00;94934.16;5092865;28;20200;-82
2023/05/12 06:34:19;;;;;;;14.97;7.67;;;;;;;9.97;100.00;94957.09;5092776;28;20200;-82
2023/05/12 06:36:47;;;;;;;12.00;7.57;;;;;;;9.96;100.00;94963.28;5093151;28;20201;-82
2023/05/12 06:39:14;;;;;;;12.17;7.43;;;;;;;9.95;100.00;94956.53;5093005;28;20207;-84
2023/05/12 06:41:41;;;;;;;11.17;7.67;;;;;;;10.05;100.00;94970.66;5093042;28;20231;-83
2023/05/12 06:44:11;;;;;;;15.53;8.23;;;;;;;10.01;100.00;94968.69;5097161;28;20207;-78
2023/05/12 06:46:38;;;;;;;12.47;7.90;;;;;;;10.03;100.00;94967.47;5091278;28;20196;-80
2023/05/12 06:49:05;;;;;;;12.73;7.60;;;;;;;10.08;100.00;94970.22;5088830;28;20204;-84
2023/05/12 06:51:32;;;;;;;16.17;7.87;;;;;;;10.11;100.00;94972.41;5096149;28;20192;-84
2023/05/12 06:54:01;;;;;;;12.10;7.33;;;;;;;10.20;100.00;94979.00;5095003;28;20284;-84
2023/05/12 06:56:28;;;;;;;12.20;7.60;;;;;;;10.34;100.00;94976.31;5096379;28;20204;-84
2023/05/12 06:58:59;;;;;;;14.93;8.00;;;;;;;10.31;100.00;94969.75;5091645;28;20882;-80
2023/05/12 07:01:26;;;;;;;10.67;7.60;;;;;;;10.34;100.00;94973.72;5094876;28;20212;-83
2023/05/12 07:03:53;;;;;;;12.80;7.90;;;;;;;10.16;100.00;94941.47;5091451;28;20209;-82
2023/05/12 07:06:20;;;;;;;14.67;8.60;;;;;;;10.39;100.00;94966.91;5091125;28;20192;-80
2023/05/12 07:08:47;;;;;;;12.83;7.80;;;;;;;10.28;100.00;94967.56;5091700;28;20196;-81
2023/05/12 07:11:18;;;;;;;12.10;8.10;;;;;;;10.02;100.00;94965.88;5091962;28;20215;-80
2023/05/12 07:13:46;;;;;;;12.23;8.37;;;;;;;9.25;100.00;94908.84;5093600;28;20219;-80
2023/05/12 07:16:12;;;;;;;18.77;8.87;;;;;;;9.48;100.00;94968.84;5095132;28;20893;-80
2023/05/12 07:18:39;;;;;;;12.77;8.80;;;;;;;9.61;100.00;94975.78;5091712;28;20193;-80
2023/05/12 07:21:06;;;;;;;12.93;8.33;;;;;;;9.82;100.00;94970.34;5090161;28;21043;-81
2023/05/12 07:23:33;;;;;;;13.23;8.47;;;;;;;10.01;100.00;94973.88;5093750;28;20200;-80
2023/05/12 07:26:01;;;;;;;13.50;8.50;;;;;;;10.19;100.00;94974.00;5090778;28;20197;-79
2023/05/12 07:28:31;;;;;;;12.80;7.60;;;;;;;10.35;100.00;94972.72;5090222;28;20212;-79
2023/05/12 07:30:58;;;;;;;11.23;7.97;;;;;;;10.48;100.00;94970.03;5090770;28;21255;-84
2023/05/12 07:33:24;;;;;;;12.73;7.90;;;;;;;10.54;100.00;94972.63;5091140;28;20203;-83
2023/05/12 07:35:51;;;;;;;15.03;8.30;;;;;;;10.61;100.00;94975.19;5099437;28;20200;-83
2023/05/12 07:38:18;;;;;;;12.93;8.33;;;;;;;10.71;100.00;94972.91;5091434;28;20215;-84
2023/05/12 07:40:45;;;;;;;14.63;8.90;;;;;;;10.81;100.00;94979.25;5090741;28;20220;-84
2023/05/12 07:43:12;;;;;;;10.53;7.83;;;;;;;10.91;100.00;94981.34;5091593;28;20232;-83
2023/05/12 07:45:40;;;;;;;9.40;7.40;;;;;;;11.05;100.00;94982.88;5090323;28;20200;-83
2023/05/12 07:48:07;;;;;;;13.57;7.60;;;;;;;11.08;100.00;94984.25;5091060;28;20196;-83
2023/05/12 07:50:34;;;;;;;11.83;7.70;;;;;;;11.08;100.00;94979.81;5091491;28;20208;-83
2023/05/12 07:53:01;;;;;;;12.07;7.60;;;;;;;11.20;100.00;94980.72;5091133;28;20204;-84
2023/05/12 07:55:28;;;;;;;15.10;7.37;;;;;;;11.20;100.00;94964.31;5091381;28;21531;-82
2023/05/12 07:57:55;;;;;;;11.33;7.80;;;;;;;11.40;100.00;94970.13;5091424;28;20284;-82
2023/05/12 08:00:22;;;;;;;12.40;7.23;;;;;;;11.46;100.00;94966.66;5091200;28;20262;-84
2023/05/12 08:02:50;;;;;;;10.67;7.43;;;;;;;11.53;100.00;94959.59;5091941;28;20205;-84
2023/05/12 08:05:17;;;;;;;10.23;6.73;;;;;;;11.53;100.00;94956.19;5091708;28;20231;-82
2023/05/12 08:07:43;;;;;;;14.00;7.20;;;;;;;11.62;100.00;94955.72;5091219;28;20276;-83
2023/05/12 08:10:11;;;;;;;12.23;7.37;;;;;;;11.63;100.00;94949.47;5089872;28;20235;-83
2023/05/12 08:12:39;;;;;;;12.70;7.30;;;;;;;11.82;100.00;94974.56;5086345;28;20232;-84
2023/05/12 08:15:06;;;;;;;10.23;8.20;;;;;;;11.92;99.19;94977.44;5093799;28;20197;-84
2023/05/12 08:17:33;;;;;;;12.73;7.40;;;;;;;11.99;98.40;94973.94;5087463;28;20285;-84
2023/05/12 08:20:03;;;;;;;11.57;7.47;;;;;;;11.91;97.85;94962.03;5089772;28;20362;-84
2023/05/12 08:22:30;;;;;;;12.57;7.77;;;;;;;11.69;99.17;94968.63;5088007;28;20262;-81
2023/05/12 08:24:57;;;;;;;13.60;8.37;;;;;;;11.35;99.72;94978.59;5087656;28;20541;-81
2023/05/12 08:27:23;;;;;;;16.43;7.93;;;;;;;11.07;100.00;94977.44;5088953;28;20231;-82
2023/05/12 08:29:50;;;;;;;18.33;8.87;;;;;;;11.09;100.00;94976.22;5089667;28;20205;-81
2023/05/12 08:32:17;;;;;;;13.17;8.80;;;;;;;11.32;100.00;94983.41;5089352;28;20632;-81
2023/05/12 08:34:44;;;;;;;17.50;9.37;;;;;;;11.55;100.00;94975.78;5089078;28;20227;-77
2023/05/12 08:37:12;;;;;;;11.83;7.80;;;;;;;11.79;99.91;94982.78;5087665;28;20357;-79
2023/05/12 08:39:40;;;;;;;15.07;7.40;;;;;;;12.02;98.72;94979.53;5090012;28;20200;-79
2023/05/12 08:42:27;;;;;;;10.80;7.80;;;;;;;12.19;96.87;94979.72;5089865;28;20268;-78
2023/05/12 08:44:58;;;;;;;11.80;7.50;;;;;;;12.30;94.67;94981.56;5087887;28;20317;-80
2023/05/12 08:47:26;;;;;;;14.43;7.87;;;;;;;12.13;95.03;94933.69;5087900;28;20208;-78
2023/05/12 08:50:02;;;;;;;10.37;7.20;;;;;;;12.48;93.83;94984.16;5090918;28;20201;-79
2023/05/12 08:52:33;;;;;;;14.37;7.47;;;;;;;12.51;95.60;94966.25;5087243;28;20308;-78
2023/05/12 08:55:01;;;;;;;12.20;7.57;;;;;;;12.59;93.41;94983.41;5092395;28;20200;-80
2023/05/12 08:57:28;;;;;;;12.03;7.90;;;;;;;12.73;93.20;94990.00;5088849;28;20235;-81
2023/05/12 08:59:55;;;;;;;21.30;8.47;;;;;;;12.74;92.09;94983.78;5089059;28;20196;-82
2023/05/12 09:02:23;;;;;;;18.87;7.53;;;;;;;12.85;91.40;94982.22;5087875;28;20307;-81
2023/05/12 09:04:50;;;;;;;14.17;7.87;;;;;;;12.89;90.75;94978.97;5088800;28;20240;-80
2023/05/12 09:07:18;;;;;;;13.40;6.90;;;;;;;13.00;89.70;94974.78;5089003;28;20204;-80
2023/05/12 09:09:51;;;;;;;11.60;6.90;;;;;;;13.15;89.64;94982.19;5088839;28;20196;-80
2023/05/12 09:12:20;;;;;;;13.93;6.43;;;;;;;13.21;88.05;94974.28;5089001;28;20204;-80
2023/05/12 09:14:55;;;;;;;13.13;7.17;;;;;;;13.31;87.78;94968.47;5089389;28;20279;-80
2023/05/12 09:17:21;;;;;;;18.50;6.97;;;;;;;13.33;86.41;94969.06;5088369;28;20200;-80
2023/05/12 09:19:48;;;;;;;39.33;9.17;;;;;;;13.16;87.70;94974.13;5087895;28;20219;-79
2023/05/12 09:22:18;;;;;;;45.53;11.60;;;;;;;13.28;88.36;94966.31;5086659;28;20220;-79
2023/05/12 09:24:46;;;;;;;26.40;7.80;;;;;;;13.35;87.58;94952.16;5087898;28;20211;-78
2023/05/12 09:27:13;;;;;;;19.27;8.07;;;;;;;13.43;87.52;94951.78;5086240;28;20219;-79
2023/05/12 09:29:49;;;;;;;26.53;7.53;;;;;;;13.58;87.11;94962.59;5085886;28;20295;-77
2023/05/12 09:32:16;;;;;;;45.10;9.57;;;;;;;13.26;87.56;94952.69;5085865;28;20208;-79
2023/05/12 09:34:44;;;;;;;14.63;7.53;;;;;;;12.83;88.96;94953.78;5086587;28;20204;-80
2023/05/12 09:37:12;;;;;;;13.07;7.37;;;;;;;12.44;90.65;94954.31;5087984;28;20283;-80
2023/05/12 09:39:39;;;;;;;12.27;7.53;;;;;;;12.61;91.52;94944.06;5084971;28;20200;-80
2023/05/12 09:42:12;;;;;;;12.70;7.67;;;;;;;12.94;91.20;94960.00;5085358;28;20223;-82
2023/05/12 09:44:40;;;;;;;11.93;7.30;;;;;;;13.21;90.53;94961.22;5088794;28;20196;-80
2023/05/12 09:47:08;;;;;;;12.73;6.47;;;;;;;13.48;87.45;94957.13;5093102;28;20219;-80
2023/05/12 09:49:36;;;;;;;9.40;6.60;;;;;;;13.69;86.73;94966.19;5089752;28;20203;-80
2023/05/12 09:52:04;;;;;;;14.07;6.77;;;;;;;13.80;86.03;94943.69;5089646;28;21018;-81
2023/05/12 09:54:33;;;;;;;9.10;6.47;;;;;;;14.04;84.54;94960.91;5093497;28;20221;-82
2023/05/12 09:57:02;;;;;;;10.80;6.77;;;;;;;14.16;84.38;94959.06;5093385;28;20575;-80
2023/05/12 09:59:32;;;;;;;10.33;7.13;;;;;;;14.26;83.81;94963.69;5093034;28;20694;-80
2023/05/12 10:02:01;;;;;;;15.33;6.60;;;;;;;14.32;83.73;94960.97;5092441;28;20216;-80
2023/05/12 10:04:29;;;;;;;10.07;7.47;;;;;;;14.46;83.19;94957.03;5092500;28;20331;-81
2023/05/12 10:06:58;;;;;;;13.73;7.63;;;;;;;14.57;81.52;94960.63;5094048;28;20756;-81
2023/05/12 10:09:32;;;;;;;11.60;7.27;;;;;;;14.64;82.40;94942.97;5096366;28;20209;-82
2023/05/12 10:12:00;;;;;;;15.87;7.77;;;;;;;14.94;81.74;94942.69;5090693;28;20208;-78
2023/05/12 10:14:27;;;;;;;11.33;7.13;;;;;;;15.10;81.18;94947.13;5092530;28;20674;-80
2023/05/12 10:16:56;;;;;;;11.20;6.03;;;;;;;15.16;78.49;94951.41;5092741;28;20216;-80
2023/05/12 10:19:26;;;;;;;9.20;5.67;;;;;;;15.28;77.49;94950.31;5095113;28;20197;-80
2023/05/12 10:21:55;;;;;;;10.97;7.27;;;;;;;15.42;78.34;94950.75;5092944;28;20315;-79
2023/05/12 10:24:25;;;;;;;11.53;6.03;;;;;;;15.42;76.26;94956.00;5091406;28;20945;-79
2023/05/12 10:26:54;;;;;;;82.97;41.13;;;;;;;15.41;75.70;94940.53;5091551;28;20197;-81
2023/05/12 10:29:28;;;;;;;75.90;17.53;;;;;;;15.54;77.07;94948.88;5095253;28;20201;-81
2023/05/12 10:31:57;;;;;;;29.77;11.40;;;;;;;15.61;76.58;94951.31;5094134;28;21657;-81
2023/05/12 10:34:29;;;;;;;52.27;26.27;;;;;;;15.67;76.42;94932.03;5092459;28;20197;-82
2023/05/12 10:37:02;;;;;;;26.83;9.60;;;;;;;15.93;75.77;94938.38;5091308;28;20207;-82
2023/05/12 10:39:29;;;;;;;41.57;16.77;;;;;;;16.07;74.13;94950.88;5092011;28;20577;-81
2023/05/12 10:42:01;;;;;;;119.97;13.63;;;;;;;16.18;73.87;94936.84;5091714;28;20316;-78
2023/05/12 10:44:28;;;;;;;51.97;17.17;;;;;;;16.27;73.30;94935.38;5089496;28;20287;-81
2023/05/12 10:46:59;;;;;;;26.43;8.00;;;;;;;16.51;73.30;94948.97;5091572;28;20296;-79
2023/05/12 10:49:36;;;;;;;11.97;6.23;;;;;;;16.57;73.33;94940.16;5093803;28;20236;-79
2023/05/12 10:52:03;;;;;;;35.80;20.20;;;;;;;16.35;72.74;94931.50;5093457;28;20200;-79
2023/05/12 10:54:30;;;;;;;8.17;6.10;;;;;;;15.91;74.96;94925.50;5090200;28;20208;-80
2023/05/12 10:57:00;;;;;;;34.97;20.87;;;;;;;15.31;77.14;94933.31;5088568;28;20575;-79
2023/05/12 10:59:27;;;;;;;22.13;11.43;;;;;;;15.52;74.64;94916.88;5094192;28;20290;-81
2023/05/12 11:02:00;;;;;;;11.50;7.97;;;;;;;15.68;76.58;94923.09;5092530;28;20224;-84
2023/05/12 11:04:40;;;;;;;10.30;7.00;;;;;;;16.01;75.00;94936.13;5094873;28;20243;-81
2023/05/12 11:07:08;;;;;;;7.37;5.27;;;;;;;15.94;73.57;94927.63;5088271;28;20239;-79
2023/05/12 11:09:36;;;;;;;10.00;5.47;;;;;;;16.07;74.45;94929.09;5101251;28;20196;-79
2023/05/12 11:12:03;;;;;;;8.20;5.57;;;;;;;16.22;73.29;94937.91;5099663;28;20228;-79
2023/05/12 11:14:31;;;;;;;6.93;5.73;;;;;;;16.22;73.95;94939.78;5096576;28;20284;-80
2023/05/12 11:17:00;;;;;;;11.43;5.60;;;;;;;16.24;71.78;94941.09;5092358;28;20633;-80
2023/05/12 11:19:27;;;;;;;7.70;5.60;;;;;;;16.17;71.72;94942.31;5090570;28;20859;-80
2023/05/12 11:21:55;;;;;;;8.07;4.97;;;;;;;16.00;73.43;94928.47;5086134;28;20221;-79
2023/05/12 11:24:22;;;;;;;9.87;5.67;;;;;;;15.99;73.04;94945.28;5088967;28;20228;-79
2023/05/12 11:26:50;;;;;;;11.83;5.23;;;;;;;15.94;72.97;94945.19;5087967;28;20236;-80